sensor_id;sensor_type;location;lat;lon;timestamp;P1;durP1;ratioP1;P2;durP2;ratioP2
54139;SDS011;40046;53.254;5.900;2023-03-03T00:00:31;3.50;;;1.50;;
54139;SDS011;40046;53.254;5.900;2023-03-03T00:02:58;2.42;;;1.13;;
54139;SDS011;40046;53.254;5.900;2023-03-03T00:05:26;5.75;;;1.00;;
54139;SDS011;40046;53.254;5.900;2023-03-03T00:07:52;6.40;;;1.27;;
54139;SDS011;40046;53.254;5.900;2023-03-03T00:10:18;2.35;;;0.88;;
54139;SDS011;40046;53.254;5.900;2023-03-03T00:12:46;4.68;;;1.13;;
54139;SDS011;40046;53.254;5.900;2023-03-03T00:15:13;5.30;;;1.30;;
54139;SDS011;40046;53.254;5.900;2023-03-03T02:11:40;4.55;;;1.17;;
54139;SDS011;40046;53.254;5.900;2023-03-03T02:14:08;2.08;;;0.65;;
54139;SDS011;40046;53.254;5.900;2023-03-03T02:16:36;3.75;;;1.08;;
54139;SDS011;40046;53.254;5.900;2023-03-03T02:19:04;3.53;;;1.17;;
54139;SDS011;40046;53.254;5.900;2023-03-03T02:21:31;3.58;;;1.13;;
54139;SDS011;40046;53.254;5.900;2023-03-03T02:26:25;7.93;;;1.50;;
54139;SDS011;40046;53.254;5.900;2023-03-03T02:28:57;6.72;;;1.20;;
54139;SDS011;40046;53.254;5.900;2023-03-03T02:31:24;2.25;;;0.68;;
54139;SDS011;40046;53.254;5.900;2023-03-03T02:33:52;2.65;;;0.98;;
54139;SDS011;40046;53.254;5.900;2023-03-03T02:36:23;3.13;;;1.25;;
54139;SDS011;40046;53.254;5.900;2023-03-03T02:41:26;3.63;;;0.82;;
54139;SDS011;40046;53.254;5.900;2023-03-03T02:44:08;2.42;;;0.90;;
54139;SDS011;40046;53.254;5.900;2023-03-03T02:46:36;4.57;;;1.17;;
54139;SDS011;40046;53.254;5.900;2023-03-03T02:49:04;2.30;;;0.60;;
54139;SDS011;40046;53.254;5.900;2023-03-03T02:51:30;2.92;;;0.98;;
54139;SDS011;40046;53.254;5.900;2023-03-03T02:53:57;2.38;;;1.15;;
54139;SDS011;40046;53.254;5.900;2023-03-03T02:56:25;6.38;;;1.10;;
54139;SDS011;40046;53.254;5.900;2023-03-03T02:58:51;8.85;;;1.35;;
54139;SDS011;40046;53.254;5.900;2023-03-03T03:01:20;6.80;;;1.00;;
54139;SDS011;40046;53.254;5.900;2023-03-03T03:03:47;4.90;;;0.90;;
54139;SDS011;40046;53.254;5.900;2023-03-03T03:06:17;3.00;;;0.73;;
54139;SDS011;40046;53.254;5.900;2023-03-03T03:08:44;2.58;;;0.77;;
54139;SDS011;40046;53.254;5.900;2023-03-03T03:11:10;7.65;;;1.65;;
54139;SDS011;40046;53.254;5.900;2023-03-03T03:13:37;3.63;;;0.88;;
54139;SDS011;40046;53.254;5.900;2023-03-03T03:16:04;5.65;;;0.98;;
54139;SDS011;40046;53.254;5.900;2023-03-03T03:18:30;5.18;;;0.88;;
54139;SDS011;40046;53.254;5.900;2023-03-03T03:21:04;3.47;;;0.80;;
54139;SDS011;40046;53.254;5.900;2023-03-03T03:23:30;5.95;;;0.93;;
54139;SDS011;40046;53.254;5.900;2023-03-03T03:25:57;4.38;;;0.90;;
54139;SDS011;40046;53.254;5.900;2023-03-03T03:28:26;3.88;;;0.70;;
54139;SDS011;40046;53.254;5.900;2023-03-03T03:30:53;7.05;;;1.10;;
54139;SDS011;40046;53.254;5.900;2023-03-03T03:33:21;2.13;;;0.85;;
54139;SDS011;40046;53.254;5.900;2023-03-03T03:35:48;3.42;;;1.17;;
54139;SDS011;40046;53.254;5.900;2023-03-03T03:38:15;5.75;;;1.20;;
54139;SDS011;40046;53.254;5.900;2023-03-03T03:40:42;3.80;;;0.40;;
54139;SDS011;40046;53.254;5.900;2023-03-03T03:43:09;3.63;;;0.70;;
54139;SDS011;40046;53.254;5.900;2023-03-03T03:45:35;6.13;;;1.02;;
54139;SDS011;40046;53.254;5.900;2023-03-03T03:48:02;4.68;;;1.02;;
54139;SDS011;40046;53.254;5.900;2023-03-03T03:50:29;4.65;;;0.77;;
54139;SDS011;40046;53.254;5.900;2023-03-03T03:52:55;4.07;;;0.63;;
54139;SDS011;40046;53.254;5.900;2023-03-03T03:55:22;6.07;;;0.75;;
54139;SDS011;40046;53.254;5.900;2023-03-03T03:57:48;2.00;;;0.65;;
54139;SDS011;40046;53.254;5.900;2023-03-03T04:00:15;4.95;;;0.98;;
54139;SDS011;40046;53.254;5.900;2023-03-03T04:02:47;6.68;;;1.00;;
54139;SDS011;40046;53.254;5.900;2023-03-03T04:05:14;4.22;;;0.85;;
54139;SDS011;40046;53.254;5.900;2023-03-03T04:07:41;2.42;;;0.60;;
54139;SDS011;40046;53.254;5.900;2023-03-03T04:10:08;1.08;;;0.63;;
54139;SDS011;40046;53.254;5.900;2023-03-03T04:12:34;3.90;;;0.93;;
54139;SDS011;40046;53.254;5.900;2023-03-03T04:15:09;4.32;;;0.73;;
54139;SDS011;40046;53.254;5.900;2023-03-03T04:17:37;2.33;;;0.80;;
54139;SDS011;40046;53.254;5.900;2023-03-03T04:20:03;6.47;;;0.90;;
54139;SDS011;40046;53.254;5.900;2023-03-03T04:22:30;3.00;;;0.98;;
54139;SDS011;40046;53.254;5.900;2023-03-03T04:24:59;3.90;;;0.80;;
54139;SDS011;40046;53.254;5.900;2023-03-03T04:27:34;4.05;;;1.40;;
54139;SDS011;40046;53.254;5.900;2023-03-03T04:30:01;6.85;;;1.02;;
54139;SDS011;40046;53.254;5.900;2023-03-03T04:32:27;4.60;;;1.05;;
54139;SDS011;40046;53.254;5.900;2023-03-03T04:34:54;4.70;;;0.90;;
54139;SDS011;40046;53.254;5.900;2023-03-03T04:37:21;4.15;;;2.20;;
54139;SDS011;40046;53.254;5.900;2023-03-03T04:39:47;3.63;;;0.90;;
54139;SDS011;40046;53.254;5.900;2023-03-03T04:42:13;2.28;;;0.95;;
54139;SDS011;40046;53.254;5.900;2023-03-03T04:44:40;3.40;;;0.93;;
54139;SDS011;40046;53.254;5.900;2023-03-03T04:47:06;7.53;;;1.55;;
54139;SDS011;40046;53.254;5.900;2023-03-03T04:49:32;6.60;;;1.83;;
54139;SDS011;40046;53.254;5.900;2023-03-03T04:51:58;6.45;;;1.00;;
54139;SDS011;40046;53.254;5.900;2023-03-03T04:54:24;8.90;;;1.75;;
54139;SDS011;40046;53.254;5.900;2023-03-03T04:56:51;4.03;;;0.90;;
54139;SDS011;40046;53.254;5.900;2023-03-03T04:59:17;3.78;;;0.82;;
54139;SDS011;40046;53.254;5.900;2023-03-03T05:01:43;4.20;;;1.33;;
54139;SDS011;40046;53.254;5.900;2023-03-03T05:04:12;6.65;;;0.82;;
54139;SDS011;40046;53.254;5.900;2023-03-03T05:06:38;6.25;;;1.00;;
54139;SDS011;40046;53.254;5.900;2023-03-03T05:09:05;8.38;;;1.30;;
54139;SDS011;40046;53.254;5.900;2023-03-03T05:11:31;2.58;;;0.70;;
54139;SDS011;40046;53.254;5.900;2023-03-03T05:13:57;7.72;;;1.02;;
54139;SDS011;40046;53.254;5.900;2023-03-03T05:16:23;3.53;;;0.90;;
54139;SDS011;40046;53.254;5.900;2023-03-03T05:18:49;8.05;;;0.88;;
54139;SDS011;40046;53.254;5.900;2023-03-03T05:21:15;5.03;;;0.98;;
54139;SDS011;40046;53.254;5.900;2023-03-03T05:23:41;3.60;;;1.10;;
54139;SDS011;40046;53.254;5.900;2023-03-03T05:26:08;4.93;;;0.73;;
54139;SDS011;40046;53.254;5.900;2023-03-03T05:28:34;2.20;;;0.68;;
54139;SDS011;40046;53.254;5.900;2023-03-03T05:31:00;4.03;;;1.10;;
54139;SDS011;40046;53.254;5.900;2023-03-03T05:33:27;1.48;;;0.70;;
54139;SDS011;40046;53.254;5.900;2023-03-03T05:35:53;4.57;;;1.00;;
54139;SDS011;40046;53.254;5.900;2023-03-03T05:38:20;4.13;;;1.35;;
54139;SDS011;40046;53.254;5.900;2023-03-03T05:40:46;1.38;;;0.73;;
54139;SDS011;40046;53.254;5.900;2023-03-03T05:43:12;5.45;;;1.30;;
54139;SDS011;40046;53.254;5.900;2023-03-03T05:45:38;6.50;;;0.93;;
54139;SDS011;40046;53.254;5.900;2023-03-03T05:48:04;4.70;;;0.82;;
54139;SDS011;40046;53.254;5.900;2023-03-03T05:50:31;2.33;;;0.80;;
54139;SDS011;40046;53.254;5.900;2023-03-03T05:52:57;3.00;;;1.02;;
54139;SDS011;40046;53.254;5.900;2023-03-03T05:55:23;3.10;;;0.70;;
54139;SDS011;40046;53.254;5.900;2023-03-03T05:57:49;2.88;;;1.10;;
54139;SDS011;40046;53.254;5.900;2023-03-03T06:00:16;2.05;;;0.70;;
54139;SDS011;40046;53.254;5.900;2023-03-03T06:02:42;4.35;;;0.85;;
54139;SDS011;40046;53.254;5.900;2023-03-03T06:05:09;4.57;;;0.80;;
54139;SDS011;40046;53.254;5.900;2023-03-03T06:07:35;2.22;;;1.15;;
54139;SDS011;40046;53.254;5.900;2023-03-03T06:10:02;4.43;;;1.88;;
54139;SDS011;40046;53.254;5.900;2023-03-03T06:12:31;8.18;;;1.63;;
54139;SDS011;40046;53.254;5.900;2023-03-03T06:14:57;3.50;;;1.85;;
54139;SDS011;40046;53.254;5.900;2023-03-03T06:17:24;5.22;;;1.63;;
54139;SDS011;40046;53.254;5.900;2023-03-03T06:19:50;4.57;;;1.45;;
54139;SDS011;40046;53.254;5.900;2023-03-03T06:22:16;4.03;;;1.83;;
54139;SDS011;40046;53.254;5.900;2023-03-03T06:24:42;3.80;;;2.25;;
54139;SDS011;40046;53.254;5.900;2023-03-03T06:27:08;2.53;;;1.52;;
54139;SDS011;40046;53.254;5.900;2023-03-03T06:29:35;4.07;;;1.50;;
54139;SDS011;40046;53.254;5.900;2023-03-03T06:32:01;2.63;;;1.13;;
54139;SDS011;40046;53.254;5.900;2023-03-03T06:34:27;4.70;;;1.60;;
54139;SDS011;40046;53.254;5.900;2023-03-03T06:36:53;4.80;;;1.65;;
54139;SDS011;40046;53.254;5.900;2023-03-03T06:39:21;5.20;;;1.75;;
54139;SDS011;40046;53.254;5.900;2023-03-03T06:41:47;8.32;;;1.92;;
54139;SDS011;40046;53.254;5.900;2023-03-03T06:44:13;6.60;;;2.15;;
54139;SDS011;40046;53.254;5.900;2023-03-03T06:46:39;7.55;;;2.58;;
54139;SDS011;40046;53.254;5.900;2023-03-03T06:49:05;5.28;;;2.38;;
54139;SDS011;40046;53.254;5.900;2023-03-03T06:51:32;4.40;;;1.55;;
54139;SDS011;40046;53.254;5.900;2023-03-03T06:54:09;4.60;;;1.40;;
54139;SDS011;40046;53.254;5.900;2023-03-03T06:56:36;8.60;;;2.17;;
54139;SDS011;40046;53.254;5.900;2023-03-03T06:59:05;5.93;;;2.25;;
54139;SDS011;40046;53.254;5.900;2023-03-03T07:01:35;4.43;;;2.00;;
54139;SDS011;40046;53.254;5.900;2023-03-03T07:06:40;8.43;;;2.45;;
54139;SDS011;40046;53.254;5.900;2023-03-03T07:09:28;5.43;;;2.33;;
54139;SDS011;40046;53.254;5.900;2023-03-03T07:12:15;8.90;;;4.10;;
54139;SDS011;40046;53.254;5.900;2023-03-03T07:14:41;7.75;;;4.20;;
54139;SDS011;40046;53.254;5.900;2023-03-03T07:17:14;8.77;;;3.97;;
54139;SDS011;40046;53.254;5.900;2023-03-03T07:19:40;14.32;;;8.13;;
54139;SDS011;40046;53.254;5.900;2023-03-03T07:22:17;11.10;;;6.28;;
54139;SDS011;40046;53.254;5.900;2023-03-03T07:24:45;12.90;;;5.28;;
54139;SDS011;40046;53.254;5.900;2023-03-03T07:29:47;7.82;;;3.10;;
54139;SDS011;40046;53.254;5.900;2023-03-03T07:32:18;8.25;;;3.08;;
54139;SDS011;40046;53.254;5.900;2023-03-03T07:34:48;7.97;;;4.47;;
54139;SDS011;40046;53.254;5.900;2023-03-03T07:37:47;11.35;;;5.03;;
54139;SDS011;40046;53.254;5.900;2023-03-03T07:40:30;8.55;;;4.43;;
54139;SDS011;40046;53.254;5.900;2023-03-03T07:42:53;8.93;;;4.00;;
54139;SDS011;40046;53.254;5.900;2023-03-03T07:45:34;8.05;;;3.25;;
54139;SDS011;40046;53.254;5.900;2023-03-03T07:48:43;9.13;;;3.50;;
54139;SDS011;40046;53.254;5.900;2023-03-03T07:50:51;12.35;;;7.15;;
54139;SDS011;40046;53.254;5.900;2023-03-03T07:53:25;13.68;;;6.68;;
54139;SDS011;40046;53.254;5.900;2023-03-03T07:55:52;12.60;;;5.32;;
54139;SDS011;40046;53.254;5.900;2023-03-03T07:58:20;12.13;;;4.50;;
54139;SDS011;40046;53.254;5.900;2023-03-03T08:03:31;15.93;;;8.25;;
54139;SDS011;40046;53.254;5.900;2023-03-03T08:06:00;14.65;;;6.50;;
54139;SDS011;40046;53.254;5.900;2023-03-03T08:08:33;11.20;;;5.22;;
54139;SDS011;40046;53.254;5.900;2023-03-03T08:11:01;15.20;;;4.80;;
54139;SDS011;40046;53.254;5.900;2023-03-03T08:21:04;4.22;;;1.75;;
54139;SDS011;40046;53.254;5.900;2023-03-03T08:23:32;4.80;;;1.50;;
54139;SDS011;40046;53.254;5.900;2023-03-03T08:25:58;9.75;;;1.80;;
54139;SDS011;40046;53.254;5.900;2023-03-03T08:28:24;7.38;;;1.92;;
54139;SDS011;40046;53.254;5.900;2023-03-03T08:30:51;6.25;;;1.90;;
54139;SDS011;40046;53.254;5.900;2023-03-03T08:33:17;7.07;;;2.00;;
54139;SDS011;40046;53.254;5.900;2023-03-03T08:35:43;3.70;;;1.30;;
54139;SDS011;40046;53.254;5.900;2023-03-03T08:38:10;6.05;;;1.90;;
54139;SDS011;40046;53.254;5.900;2023-03-03T08:40:37;3.75;;;1.23;;
54139;SDS011;40046;53.254;5.900;2023-03-03T08:43:03;6.38;;;1.55;;
54139;SDS011;40046;53.254;5.900;2023-03-03T08:45:29;4.47;;;1.20;;
54139;SDS011;40046;53.254;5.900;2023-03-03T08:47:56;2.75;;;0.68;;
54139;SDS011;40046;53.254;5.900;2023-03-03T08:50:24;3.28;;;0.90;;
54139;SDS011;40046;53.254;5.900;2023-03-03T08:52:50;8.70;;;3.05;;
54139;SDS011;40046;53.254;5.900;2023-03-03T08:55:16;10.70;;;3.72;;
54139;SDS011;40046;53.254;5.900;2023-03-03T08:57:43;9.40;;;1.30;;
54139;SDS011;40046;53.254;5.900;2023-03-03T09:00:10;4.63;;;1.13;;
54139;SDS011;40046;53.254;5.900;2023-03-03T09:02:37;3.63;;;1.02;;
54139;SDS011;40046;53.254;5.900;2023-03-03T09:05:03;5.18;;;1.60;;
54139;SDS011;40046;53.254;5.900;2023-03-03T09:07:30;4.53;;;1.02;;
54139;SDS011;40046;53.254;5.900;2023-03-03T09:09:56;7.53;;;0.98;;
54139;SDS011;40046;53.254;5.900;2023-03-03T09:12:30;5.28;;;1.20;;
54139;SDS011;40046;53.254;5.900;2023-03-03T09:15:15;7.90;;;1.20;;
54139;SDS011;40046;53.254;5.900;2023-03-03T09:17:41;8.40;;;0.90;;
54139;SDS011;40046;53.254;5.900;2023-03-03T09:20:29;8.98;;;0.80;;
54139;SDS011;40046;53.254;5.900;2023-03-03T09:22:57;1.58;;;0.63;;
54139;SDS011;40046;53.254;5.900;2023-03-03T09:27:51;8.73;;;1.10;;
54139;SDS011;40046;53.254;5.900;2023-03-03T09:33:18;2.88;;;0.68;;
54139;SDS011;40046;53.254;5.900;2023-03-03T09:35:45;7.47;;;1.20;;
54139;SDS011;40046;53.254;5.900;2023-03-03T09:38:28;4.32;;;0.80;;
54139;SDS011;40046;53.254;5.900;2023-03-03T09:41:08;2.80;;;1.00;;
54139;SDS011;40046;53.254;5.900;2023-03-03T09:43:37;3.03;;;0.60;;
54139;SDS011;40046;53.254;5.900;2023-03-03T09:46:12;5.32;;;1.63;;
54139;SDS011;40046;53.254;5.900;2023-03-03T09:48:54;7.18;;;1.00;;
54139;SDS011;40046;53.254;5.900;2023-03-03T09:51:40;4.18;;;0.50;;
54139;SDS011;40046;53.254;5.900;2023-03-03T09:54:32;1.27;;;0.32;;
54139;SDS011;40046;53.254;5.900;2023-03-03T09:59:25;2.47;;;0.40;;
54139;SDS011;40046;53.254;5.900;2023-03-03T10:12:08;2.22;;;0.70;;
54139;SDS011;40046;53.254;5.900;2023-03-03T10:17:34;6.70;;;0.90;;
54139;SDS011;40046;53.254;5.900;2023-03-03T10:27:43;2.55;;;0.55;;
54139;SDS011;40046;53.254;5.900;2023-03-03T10:32:48;5.05;;;0.80;;
54139;SDS011;40046;53.254;5.900;2023-03-03T10:40:36;7.03;;;0.82;;
54139;SDS011;40046;53.254;5.900;2023-03-03T10:43:09;5.68;;;0.73;;
54139;SDS011;40046;53.254;5.900;2023-03-03T10:48:42;6.75;;;0.77;;
54139;SDS011;40046;53.254;5.900;2023-03-03T10:53:43;7.15;;;1.13;;
54139;SDS011;40046;53.254;5.900;2023-03-03T10:56:33;5.20;;;1.30;;
54139;SDS011;40046;53.254;5.900;2023-03-03T11:01:46;8.50;;;0.70;;
54139;SDS011;40046;53.254;5.900;2023-03-03T11:11:44;6.32;;;1.33;;
54139;SDS011;40046;53.254;5.900;2023-03-03T11:16:59;5.72;;;0.90;;
54139;SDS011;40046;53.254;5.900;2023-03-03T11:24:40;5.32;;;0.88;;
54139;SDS011;40046;53.254;5.900;2023-03-03T11:35:03;4.18;;;0.60;;
54139;SDS011;40046;53.254;5.900;2023-03-03T11:37:41;11.75;;;1.05;;
54139;SDS011;40046;53.254;5.900;2023-03-03T11:40:20;7.45;;;1.10;;
54139;SDS011;40046;53.254;5.900;2023-03-03T11:45:18;5.82;;;2.05;;
54139;SDS011;40046;53.254;5.900;2023-03-03T11:47:57;8.68;;;1.15;;
54139;SDS011;40046;53.254;5.900;2023-03-03T11:50:25;8.90;;;2.42;;
54139;SDS011;40046;53.254;5.900;2023-03-03T11:57:53;4.78;;;1.02;;
54139;SDS011;40046;53.254;5.900;2023-03-03T12:03:33;7.90;;;1.63;;
54139;SDS011;40046;53.254;5.900;2023-03-03T12:11:15;9.27;;;1.50;;
54139;SDS011;40046;53.254;5.900;2023-03-03T12:19:12;7.93;;;1.65;;
54139;SDS011;40046;53.254;5.900;2023-03-03T12:21:53;12.00;;;1.77;;
54139;SDS011;40046;53.254;5.900;2023-03-03T12:27:17;11.70;;;3.50;;
54139;SDS011;40046;53.254;5.900;2023-03-03T12:40:27;11.95;;;1.70;;
54139;SDS011;40046;53.254;5.900;2023-03-03T12:45:35;11.65;;;1.70;;
54139;SDS011;40046;53.254;5.900;2023-03-03T12:48:07;20.73;;;3.83;;
54139;SDS011;40046;53.254;5.900;2023-03-03T12:53:09;16.38;;;2.58;;
54139;SDS011;40046;53.254;5.900;2023-03-03T12:55:48;18.55;;;2.90;;
54139;SDS011;40046;53.254;5.900;2023-03-03T12:58:24;18.50;;;3.10;;
54139;SDS011;40046;53.254;5.900;2023-03-03T13:16:41;23.33;;;4.43;;
54139;SDS011;40046;53.254;5.900;2023-03-03T13:19:10;24.45;;;6.95;;
54139;SDS011;40046;53.254;5.900;2023-03-03T13:24:15;22.05;;;2.75;;
54139;SDS011;40046;53.254;5.900;2023-03-03T13:29:14;15.77;;;3.38;;
54139;SDS011;40046;53.254;5.900;2023-03-03T13:32:04;18.20;;;3.15;;
54139;SDS011;40046;53.254;5.900;2023-03-03T13:34:36;26.52;;;3.97;;
54139;SDS011;40046;53.254;5.900;2023-03-03T13:37:07;16.00;;;2.90;;
54139;SDS011;40046;53.254;5.900;2023-03-03T13:39:41;12.60;;;2.70;;
54139;SDS011;40046;53.254;5.900;2023-03-03T13:42:16;24.27;;;4.75;;
54139;SDS011;40046;53.254;5.900;2023-03-03T13:44:45;12.90;;;2.13;;
54139;SDS011;40046;53.254;5.900;2023-03-03T13:47:26;16.02;;;2.85;;
54139;SDS011;40046;53.254;5.900;2023-03-03T13:52:22;19.48;;;4.75;;
54139;SDS011;40046;53.254;5.900;2023-03-03T14:00:06;14.65;;;2.97;;
54139;SDS011;40046;53.254;5.900;2023-03-03T14:05:25;17.38;;;5.60;;
54139;SDS011;40046;53.254;5.900;2023-03-03T14:08:06;17.00;;;3.45;;
54139;SDS011;40046;53.254;5.900;2023-03-03T14:18:23;13.50;;;2.45;;
54139;SDS011;40046;53.254;5.900;2023-03-03T14:20:55;20.65;;;5.45;;
54139;SDS011;40046;53.254;5.900;2023-03-03T14:26:10;16.85;;;3.58;;
54139;SDS011;40046;53.254;5.900;2023-03-03T14:28:38;15.57;;;3.58;;
54139;SDS011;40046;53.254;5.900;2023-03-03T14:31:15;22.40;;;6.05;;
54139;SDS011;40046;53.254;5.900;2023-03-03T14:33:43;20.33;;;6.75;;
54139;SDS011;40046;53.254;5.900;2023-03-03T14:36:12;17.98;;;4.78;;
54139;SDS011;40046;53.254;5.900;2023-03-03T14:38:41;14.43;;;2.60;;
54139;SDS011;40046;53.254;5.900;2023-03-03T14:41:13;15.93;;;2.38;;
54139;SDS011;40046;53.254;5.900;2023-03-03T14:43:40;21.48;;;4.28;;
54139;SDS011;40046;53.254;5.900;2023-03-03T14:49:13;21.58;;;4.38;;
54139;SDS011;40046;53.254;5.900;2023-03-03T14:51:45;20.33;;;3.20;;
54139;SDS011;40046;53.254;5.900;2023-03-03T14:54:23;24.77;;;3.85;;
54139;SDS011;40046;53.254;5.900;2023-03-03T14:56:57;28.10;;;5.30;;
54139;SDS011;40046;53.254;5.900;2023-03-03T14:59:25;25.27;;;4.50;;
54139;SDS011;40046;53.254;5.900;2023-03-03T15:04:36;20.70;;;6.13;;
54139;SDS011;40046;53.254;5.900;2023-03-03T15:07:14;28.05;;;3.70;;
54139;SDS011;40046;53.254;5.900;2023-03-03T15:09:47;24.88;;;3.42;;
54139;SDS011;40046;53.254;5.900;2023-03-03T15:14:47;18.92;;;3.25;;
54139;SDS011;40046;53.254;5.900;2023-03-03T15:17:24;20.73;;;4.43;;
54139;SDS011;40046;53.254;5.900;2023-03-03T15:25:03;16.13;;;2.58;;
54139;SDS011;40046;53.254;5.900;2023-03-03T15:27:35;24.73;;;4.00;;
54139;SDS011;40046;53.254;5.900;2023-03-03T15:42:56;23.35;;;5.03;;
54139;SDS011;40046;53.254;5.900;2023-03-03T16:06:42;26.15;;;5.10;;
54139;SDS011;40046;53.254;5.900;2023-03-03T16:27:13;25.98;;;4.22;;
54139;SDS011;40046;53.254;5.900;2023-03-03T16:32:16;20.70;;;3.70;;
54139;SDS011;40046;53.254;5.900;2023-03-03T16:37:33;26.85;;;5.40;;
54139;SDS011;40046;53.254;5.900;2023-03-03T16:42:28;18.98;;;3.03;;
54139;SDS011;40046;53.254;5.900;2023-03-03T16:53:34;19.42;;;3.72;;
54139;SDS011;40046;53.254;5.900;2023-03-03T16:58:17;24.38;;;3.92;;
54139;SDS011;40046;53.254;5.900;2023-03-03T17:00:54;22.95;;;5.45;;
54139;SDS011;40046;53.254;5.900;2023-03-03T17:03:33;20.02;;;3.70;;
54139;SDS011;40046;53.254;5.900;2023-03-03T17:06:03;26.02;;;4.78;;
54139;SDS011;40046;53.254;5.900;2023-03-03T17:08:52;22.60;;;3.95;;
54139;SDS011;40046;53.254;5.900;2023-03-03T17:14:21;23.70;;;4.22;;
54139;SDS011;40046;53.254;5.900;2023-03-03T17:16:57;16.02;;;4.13;;
54139;SDS011;40046;53.254;5.900;2023-03-03T17:30:00;25.90;;;6.43;;
54139;SDS011;40046;53.254;5.900;2023-03-03T17:35:19;23.65;;;4.20;;
54139;SDS011;40046;53.254;5.900;2023-03-03T17:37:55;23.80;;;4.72;;
54139;SDS011;40046;53.254;5.900;2023-03-03T17:45:22;28.42;;;5.28;;
54139;SDS011;40046;53.254;5.900;2023-03-03T17:52:59;22.77;;;5.40;;
54139;SDS011;40046;53.254;5.900;2023-03-03T18:18:33;16.88;;;3.78;;
54139;SDS011;40046;53.254;5.900;2023-03-03T18:23:39;27.95;;;4.57;;
54139;SDS011;40046;53.254;5.900;2023-03-03T18:28:51;28.08;;;6.85;;
54139;SDS011;40046;53.254;5.900;2023-03-03T18:31:22;34.15;;;7.15;;
54139;SDS011;40046;53.254;5.900;2023-03-03T18:38:53;19.00;;;4.07;;
54139;SDS011;40046;53.254;5.900;2023-03-03T18:41:27;24.35;;;3.90;;
54139;SDS011;40046;53.254;5.900;2023-03-03T18:43:55;21.35;;;3.38;;
54139;SDS011;40046;53.254;5.900;2023-03-03T18:59:10;24.90;;;4.38;;
54139;SDS011;40046;53.254;5.900;2023-03-03T19:04:43;14.82;;;4.28;;
54139;SDS011;40046;53.254;5.900;2023-03-03T19:07:14;25.27;;;3.78;;
54139;SDS011;40046;53.254;5.900;2023-03-03T19:12:10;25.75;;;4.75;;
54139;SDS011;40046;53.254;5.900;2023-03-03T19:14:38;22.45;;;4.55;;
54139;SDS011;40046;53.254;5.900;2023-03-03T19:22:27;20.77;;;3.90;;
54139;SDS011;40046;53.254;5.900;2023-03-03T19:27:42;26.13;;;4.15;;
54139;SDS011;40046;53.254;5.900;2023-03-03T19:30:18;25.00;;;4.50;;
54139;SDS011;40046;53.254;5.900;2023-03-03T19:38:43;16.80;;;2.95;;
54139;SDS011;40046;53.254;5.900;2023-03-03T19:43:20;22.13;;;4.65;;
54139;SDS011;40046;53.254;5.900;2023-03-03T19:53:35;12.63;;;2.92;;
54139;SDS011;40046;53.254;5.900;2023-03-03T19:56:07;19.33;;;2.85;;
54139;SDS011;40046;53.254;5.900;2023-03-03T19:58:56;20.40;;;2.65;;
54139;SDS011;40046;53.254;5.900;2023-03-03T20:09:16;19.75;;;2.72;;
54139;SDS011;40046;53.254;5.900;2023-03-03T20:17:03;17.67;;;3.55;;
54139;SDS011;40046;53.254;5.900;2023-03-03T20:19:59;19.98;;;3.72;;
54139;SDS011;40046;53.254;5.900;2023-03-03T20:27:43;17.52;;;4.20;;
54139;SDS011;40046;53.254;5.900;2023-03-03T20:40:38;15.55;;;3.92;;
54139;SDS011;40046;53.254;5.900;2023-03-03T20:48:45;17.88;;;3.08;;
54139;SDS011;40046;53.254;5.900;2023-03-03T20:51:26;20.58;;;4.50;;
54139;SDS011;40046;53.254;5.900;2023-03-03T21:04:30;23.73;;;3.25;;
54139;SDS011;40046;53.254;5.900;2023-03-03T21:06:58;14.50;;;1.88;;
54139;SDS011;40046;53.254;5.900;2023-03-03T21:11:52;12.27;;;2.15;;
54139;SDS011;40046;53.254;5.900;2023-03-03T21:14:26;18.38;;;2.40;;
54139;SDS011;40046;53.254;5.900;2023-03-03T21:16:53;21.20;;;2.95;;
54139;SDS011;40046;53.254;5.900;2023-03-03T21:19:34;12.45;;;2.08;;
54139;SDS011;40046;53.254;5.900;2023-03-03T21:22:03;20.92;;;3.33;;
54139;SDS011;40046;53.254;5.900;2023-03-03T21:27:27;18.13;;;3.10;;
54139;SDS011;40046;53.254;5.900;2023-03-03T21:30:28;18.13;;;3.22;;
54139;SDS011;40046;53.254;5.900;2023-03-03T21:32:47;15.88;;;3.22;;
54139;SDS011;40046;53.254;5.900;2023-03-03T21:35:19;17.23;;;1.88;;
54139;SDS011;40046;53.254;5.900;2023-03-03T21:40:21;21.75;;;2.88;;
54139;SDS011;40046;53.254;5.900;2023-03-03T21:42:50;12.50;;;2.03;;
54139;SDS011;40046;53.254;5.900;2023-03-03T21:45:17;16.10;;;2.63;;
54139;SDS011;40046;53.254;5.900;2023-03-03T21:47:44;13.98;;;3.10;;
54139;SDS011;40046;53.254;5.900;2023-03-03T21:50:11;13.60;;;3.28;;
54139;SDS011;40046;53.254;5.900;2023-03-03T21:52:37;15.00;;;2.97;;
54139;SDS011;40046;53.254;5.900;2023-03-03T21:55:04;17.88;;;3.40;;
54139;SDS011;40046;53.254;5.900;2023-03-03T21:57:30;17.23;;;2.80;;
54139;SDS011;40046;53.254;5.900;2023-03-03T21:59:56;19.60;;;2.80;;
54139;SDS011;40046;53.254;5.900;2023-03-03T22:02:22;13.88;;;1.77;;
54139;SDS011;40046;53.254;5.900;2023-03-03T22:04:48;17.67;;;2.22;;
54139;SDS011;40046;53.254;5.900;2023-03-03T22:07:14;13.95;;;2.00;;
54139;SDS011;40046;53.254;5.900;2023-03-03T22:09:40;15.95;;;3.40;;
54139;SDS011;40046;53.254;5.900;2023-03-03T22:12:07;11.00;;;2.33;;
54139;SDS011;40046;53.254;5.900;2023-03-03T22:14:33;19.33;;;4.38;;
54139;SDS011;40046;53.254;5.900;2023-03-03T22:16:59;17.77;;;3.33;;
54139;SDS011;40046;53.254;5.900;2023-03-03T22:19:25;15.05;;;2.40;;
54139;SDS011;40046;53.254;5.900;2023-03-03T22:21:52;14.60;;;2.08;;
54139;SDS011;40046;53.254;5.900;2023-03-03T22:24:18;15.43;;;2.30;;
54139;SDS011;40046;53.254;5.900;2023-03-03T22:26:44;13.27;;;2.65;;
54139;SDS011;40046;53.254;5.900;2023-03-03T22:29:10;22.10;;;3.80;;
54139;SDS011;40046;53.254;5.900;2023-03-03T22:31:36;23.15;;;2.45;;
54139;SDS011;40046;53.254;5.900;2023-03-03T22:34:02;17.88;;;2.38;;
54139;SDS011;40046;53.254;5.900;2023-03-03T22:36:29;20.30;;;3.70;;
54139;SDS011;40046;53.254;5.900;2023-03-03T22:38:55;16.33;;;2.15;;
54139;SDS011;40046;53.254;5.900;2023-03-03T22:41:21;10.20;;;1.58;;
54139;SDS011;40046;53.254;5.900;2023-03-03T22:43:47;12.95;;;2.10;;
54139;SDS011;40046;53.254;5.900;2023-03-03T22:46:14;18.13;;;1.98;;
54139;SDS011;40046;53.254;5.900;2023-03-03T22:48:40;18.20;;;2.70;;
54139;SDS011;40046;53.254;5.900;2023-03-03T22:51:06;12.95;;;1.92;;
54139;SDS011;40046;53.254;5.900;2023-03-03T22:53:32;7.88;;;1.42;;
54139;SDS011;40046;53.254;5.900;2023-03-03T22:55:58;15.88;;;2.17;;
54139;SDS011;40046;53.254;5.900;2023-03-03T22:58:24;13.95;;;2.35;;
54139;SDS011;40046;53.254;5.900;2023-03-03T23:00:51;8.75;;;2.38;;
54139;SDS011;40046;53.254;5.900;2023-03-03T23:03:18;17.27;;;2.88;;
54139;SDS011;40046;53.254;5.900;2023-03-03T23:05:47;20.80;;;4.15;;
54139;SDS011;40046;53.254;5.900;2023-03-03T23:08:14;14.27;;;2.30;;
54139;SDS011;40046;53.254;5.900;2023-03-03T23:10:40;20.15;;;4.35;;
54139;SDS011;40046;53.254;5.900;2023-03-03T23:13:07;14.05;;;2.97;;
54139;SDS011;40046;53.254;5.900;2023-03-03T23:15:33;15.90;;;3.35;;
54139;SDS011;40046;53.254;5.900;2023-03-03T23:17:59;12.32;;;1.95;;
54139;SDS011;40046;53.254;5.900;2023-03-03T23:20:27;13.95;;;3.05;;
54139;SDS011;40046;53.254;5.900;2023-03-03T23:22:53;17.30;;;2.95;;
54139;SDS011;40046;53.254;5.900;2023-03-03T23:25:20;23.85;;;3.85;;
54139;SDS011;40046;53.254;5.900;2023-03-03T23:27:49;13.45;;;2.85;;
54139;SDS011;40046;53.254;5.900;2023-03-03T23:30:17;19.23;;;2.38;;
54139;SDS011;40046;53.254;5.900;2023-03-03T23:32:42;13.63;;;2.22;;
54139;SDS011;40046;53.254;5.900;2023-03-03T23:35:09;13.07;;;2.20;;
54139;SDS011;40046;53.254;5.900;2023-03-03T23:37:35;22.48;;;2.65;;